Time;durP1;ratioP1;P1;durP2;ratioP2;P2;SDS_P1;SDS_P2;PMS_P1;PMS_P2;Temp;Humidity;BMP_temperature;BMP_pressure;BME280_temperature;BME280_humidity;BME280_pressure;Samples;Min_cycle;Max_cycle;Signal;HPM_P1;HPM_P2
2021/12/19 00:01:55;;;;;;;17.27;7.53;;;;;;;;;;5057700;28;20385;-75
2021/12/19 00:09:53;;;;;;;14.65;6.85;;;;;;;;;;5075781;28;20078;-74
2021/12/19 00:12:19;;;;;;;16.38;7.55;;;;;;;;;;5057454;28;20039;-75
2021/12/19 00:14:45;;;;;;;14.98;6.53;;;;;;;;;;5075435;28;20453;-73
2021/12/19 00:17:11;;;;;;;17.67;7.65;;;;;;;;;;5057435;28;20396;-75
2021/12/19 00:19:38;;;;;;;17.83;8.18;;;;;;;;;;5074912;28;20021;-74
2021/12/19 00:22:04;;;;;;;17.55;8.48;;;;;;;;;;5057182;28;20032;-76
2021/12/19 00:24:30;;;;;;;16.55;8.07;;;;;;;;;;5075242;28;20057;-75
2021/12/19 00:26:57;;;;;;;16.80;8.25;;;;;;;;;;5075113;28;20027;-77
2021/12/19 00:29:23;;;;;;;14.48;7.65;;;;;;;;;;5057156;28;20032;-75
2021/12/19 00:31:49;;;;;;;22.95;8.88;;;;;;;;;;5057125;28;20162;-77
2021/12/19 00:34:16;;;;;;;15.65;8.55;;;;;;;;;;5075511;28;20449;-73
2021/12/19 00:36:42;;;;;;;18.75;8.55;;;;;;;;;;5057115;28;20024;-76
2021/12/19 00:39:08;;;;;;;18.00;9.15;;;;;;;;;;5056917;28;20037;-75
2021/12/19 00:41:35;;;;;;;17.50;9.27;;;;;;;;;;5074395;28;20056;-76
2021/12/19 00:44:10;;;;;;;19.58;9.32;;;;;;;;;;5056854;28;20062;-76
2021/12/19 00:46:44;;;;;;;16.65;8.90;;;;;;;;;;5056859;28;20023;-75
2021/12/19 00:49:11;;;;;;;16.63;8.68;;;;;;;;;;5056815;28;20024;-73
2021/12/19 00:51:38;;;;;;;17.02;8.90;;;;;;;;;;5075205;28;20532;-77
2021/12/19 00:54:09;;;;;;;20.08;9.63;;;;;;;;;;5074562;28;20036;-74
2021/12/19 00:56:36;;;;;;;18.33;9.32;;;;;;;;;;5074525;28;20024;-77
2021/12/19 00:59:02;;;;;;;19.75;9.85;;;;;;;;;;5074486;28;20020;-76
2021/12/19 01:01:29;;;;;;;20.10;9.80;;;;;;;;;;5056525;28;20393;-77
2021/12/19 01:03:55;;;;;;;17.65;9.80;;;;;;;;;;5074855;28;20123;-75
2021/12/19 01:06:21;;;;;;;17.35;9.85;;;;;;;;;;5074923;28;20476;-75
2021/12/19 01:08:48;;;;;;;18.23;9.88;;;;;;;;;;5074291;28;20150;-73
2021/12/19 01:11:15;;;;;;;17.83;9.32;;;;;;;;;;5074846;28;20389;-75
2021/12/19 01:13:41;;;;;;;16.95;9.98;;;;;;;;;;5074104;28;20038;-73
2021/12/19 01:16:07;;;;;;;18.88;9.68;;;;;;;;;;5056268;28;20020;-76
2021/12/19 01:18:33;;;;;;;18.15;9.63;;;;;;;;;;5074161;28;20051;-74
2021/12/19 01:21:00;;;;;;;16.23;8.82;;;;;;;;;;5056120;28;20024;-75
2021/12/19 01:23:26;;;;;;;15.90;8.68;;;;;;;;;;5056068;28;20036;-76
2021/12/19 01:25:52;;;;;;;16.38;8.70;;;;;;;;;;5074524;28;20150;-76
2021/12/19 01:28:19;;;;;;;14.35;8.10;;;;;;;;;;5073971;28;20025;-74
2021/12/19 01:30:46;;;;;;;15.82;8.80;;;;;;;;;;5055820;28;20031;-74
2021/12/19 01:33:12;;;;;;;15.70;8.93;;;;;;;;;;5073850;28;20106;-74
2021/12/19 01:35:38;;;;;;;16.67;8.65;;;;;;;;;;5073822;28;20055;-74
2021/12/19 01:38:04;;;;;;;17.42;9.50;;;;;;;;;;5055801;28;20060;-75
2021/12/19 01:40:30;;;;;;;22.73;10.50;;;;;;;;;;5073851;28;20044;-76
2021/12/19 01:42:57;;;;;;;17.60;9.88;;;;;;;;;;5073690;28;20086;-75
2021/12/19 01:45:28;;;;;;;16.67;9.75;;;;;;;;;;5073924;28;20073;-75
2021/12/19 01:47:55;;;;;;;16.80;9.20;;;;;;;;;;5055673;28;20036;-75
2021/12/19 01:50:22;;;;;;;19.55;10.07;;;;;;;;;;5073587;28;20020;-74
2021/12/19 01:52:49;;;;;;;18.80;9.50;;;;;;;;;;5073578;28;20107;-75
2021/12/19 01:55:15;;;;;;;19.15;9.57;;;;;;;;;;5055546;28;20059;-74
2021/12/19 01:57:41;;;;;;;17.63;9.85;;;;;;;;;;5073566;28;20033;-73
2021/12/19 02:00:08;;;;;;;17.80;9.18;;;;;;;;;;5055624;28;20021;-74
2021/12/19 02:02:34;;;;;;;17.90;9.10;;;;;;;;;;5073403;28;20032;-77
2021/12/19 02:05:01;;;;;;;19.70;9.80;;;;;;;;;;5073627;28;20032;-75
2021/12/19 02:07:28;;;;;;;17.73;9.18;;;;;;;;;;5055531;28;20447;-73
2021/12/19 02:09:54;;;;;;;16.92;8.80;;;;;;;;;;5055442;28;20039;-74
2021/12/19 02:12:21;;;;;;;15.45;9.20;;;;;;;;;;5073389;28;20028;-75
2021/12/19 02:14:48;;;;;;;16.77;8.88;;;;;;;;;;5073931;28;20017;-73
2021/12/19 02:17:15;;;;;;;15.18;8.60;;;;;;;;;;5055421;28;20028;-74
2021/12/19 02:19:41;;;;;;;18.85;8.35;;;;;;;;;;5073296;28;20480;-74
2021/12/19 02:22:07;;;;;;;12.70;6.85;;;;;;;;;;5055319;28;20020;-74
2021/12/19 02:24:34;;;;;;;12.40;7.25;;;;;;;;;;5055388;28;20401;-75
2021/12/19 02:27:01;;;;;;;13.60;6.57;;;;;;;;;;5055244;28;20548;-74
2021/12/19 02:29:27;;;;;;;11.82;6.55;;;;;;;;;;5073207;28;20082;-77
2021/12/19 02:31:53;;;;;;;13.20;7.13;;;;;;;;;;5073182;28;20021;-73
2021/12/19 02:34:24;;;;;;;14.15;7.20;;;;;;;;;;5055237;28;20111;-74
2021/12/19 02:37:56;;;;;;;13.93;6.85;;;;;;;;;;5055243;28;20040;-78
2021/12/19 02:40:11;;;;;;;15.15;7.68;;;;;;;;;;5070647;28;20029;-74
2021/12/19 02:48:13;;;;;;;15.50;7.75;;;;;;;;;;5077078;28;20032;-74
2021/12/19 02:50:45;;;;;;;16.17;7.95;;;;;;;;;;5059934;28;20028;-73
2021/12/19 02:53:11;;;;;;;16.42;7.85;;;;;;;;;;5059025;28;20025;-75
2021/12/19 02:55:37;;;;;;;18.70;8.48;;;;;;;;;;5077138;28;20043;-73
2021/12/19 02:58:04;;;;;;;16.88;8.55;;;;;;;;;;5058911;28;20029;-75
2021/12/19 03:00:30;;;;;;;15.32;8.43;;;;;;;;;;5077282;28;20024;-75
2021/12/19 03:02:56;;;;;;;18.08;8.40;;;;;;;;;;5076871;28;20374;-73
2021/12/19 03:05:22;;;;;;;18.17;8.52;;;;;;;;;;5058742;28;20074;-75
2021/12/19 03:07:51;;;;;;;13.40;7.65;;;;;;;;;;5076633;28;20074;-75
2021/12/19 03:18:03;;;;;;;12.55;6.97;;;;;;;;;;5076568;28;20035;-75
2021/12/19 03:20:31;;;;;;;12.30;7.03;;;;;;;;;;5058588;28;20101;-75
2021/12/19 03:22:58;;;;;;;14.43;7.20;;;;;;;;;;5076785;28;20131;-75
2021/12/19 03:25:24;;;;;;;12.48;7.05;;;;;;;;;;5076298;28;20103;-74
2021/12/19 03:27:50;;;;;;;12.75;6.95;;;;;;;;;;5058354;28;20025;-74
2021/12/19 03:30:17;;;;;;;12.45;6.20;;;;;;;;;;5058381;28;20455;-73
2021/12/19 03:32:44;;;;;;;12.73;6.40;;;;;;;;;;5058299;28;20119;-73
2021/12/19 03:35:10;;;;;;;11.98;6.05;;;;;;;;;;5058239;28;20428;-73
2021/12/19 03:37:36;;;;;;;12.55;6.68;;;;;;;;;;5058186;28;20028;-73
2021/12/19 03:40:11;;;;;;;11.00;5.47;;;;;;;;;;5076278;28;20068;-75
2021/12/19 03:42:40;;;;;;;12.05;6.68;;;;;;;;;;5058031;28;20040;-78
2021/12/19 03:45:08;;;;;;;12.10;5.82;;;;;;;;;;5057952;28;20028;-76
2021/12/19 03:47:34;;;;;;;10.23;5.88;;;;;;;;;;5075938;28;20024;-76
2021/12/19 03:50:02;;;;;;;10.20;5.57;;;;;;;;;;5075896;28;20377;-74
2021/12/19 03:52:29;;;;;;;10.38;5.50;;;;;;;;;;5057821;28;20048;-75
2021/12/19 03:54:56;;;;;;;9.43;5.28;;;;;;;;;;5056589;28;20066;-76
2021/12/19 03:57:22;;;;;;;9.93;5.65;;;;;;;;;;5075726;28;20024;-76
2021/12/19 03:59:49;;;;;;;10.32;5.07;;;;;;;;;;5075747;28;20028;-76
2021/12/19 04:02:24;;;;;;;9.75;4.82;;;;;;;;;;5076172;28;20024;-76
2021/12/19 04:04:50;;;;;;;10.35;5.10;;;;;;;;;;5057676;28;20473;-75
2021/12/19 04:07:17;;;;;;;9.32;4.53;;;;;;;;;;5057664;28;20020;-76
2021/12/19 04:09:43;;;;;;;9.32;4.95;;;;;;;;;;5075543;28;20024;-76
2021/12/19 04:12:09;;;;;;;8.73;4.80;;;;;;;;;;5075827;28;20035;-76
2021/12/19 04:14:36;;;;;;;10.70;5.18;;;;;;;;;;5075677;28;20021;-76
2021/12/19 04:17:03;;;;;;;8.13;4.60;;;;;;;;;;5075424;28;20028;-76
2021/12/19 04:19:29;;;;;;;8.48;4.75;;;;;;;;;;5075462;28;20029;-76
2021/12/19 04:21:56;;;;;;;7.90;4.30;;;;;;;;;;5075879;28;20438;-76
2021/12/19 04:24:23;;;;;;;8.52;4.43;;;;;;;;;;5075825;28;20041;-75
2021/12/19 04:26:49;;;;;;;9.20;4.43;;;;;;;;;;5075751;28;20024;-75
2021/12/19 04:29:15;;;;;;;11.70;4.72;;;;;;;;;;5075693;28;20029;-75
2021/12/19 04:31:42;;;;;;;11.18;4.90;;;;;;;;;;5075140;28;20016;-76
2021/12/19 04:34:08;;;;;;;8.07;4.22;;;;;;;;;;5075296;28;20467;-76
2021/12/19 04:36:39;;;;;;;8.43;3.92;;;;;;;;;;5074968;28;20035;-75
2021/12/19 05:00:18;;;;;;;7.53;3.90;;;;;;;;;;5074794;28;20078;-76
2021/12/19 05:02:59;;;;;;;8.68;3.92;;;;;;;;;;5056542;28;20033;-74
2021/12/19 05:05:45;;;;;;;9.65;4.80;;;;;;;;;;5056031;28;20439;-77
2021/12/19 05:16:25;;;;;;;11.43;5.65;;;;;;;;;;5074340;28;20059;-74
2021/12/19 05:18:54;;;;;;;9.00;4.88;;;;;;;;;;5074468;28;20036;-76
2021/12/19 05:21:26;;;;;;;11.40;5.00;;;;;;;;;;5074989;28;20485;-76
2021/12/19 05:24:17;;;;;;;8.93;5.18;;;;;;;;;;5056025;28;20043;-75
2021/12/19 05:26:42;;;;;;;10.05;5.32;;;;;;;;;;5073769;28;20119;-76
2021/12/19 05:29:09;;;;;;;8.45;5.13;;;;;;;;;;5056876;28;20154;-76
2021/12/19 05:31:36;;;;;;;9.88;4.95;;;;;;;;;;5056054;28;20025;-76
2021/12/19 05:34:02;;;;;;;9.32;5.07;;;;;;;;;;5074372;28;20031;-74
2021/12/19 05:47:19;;;;;;;10.02;5.60;;;;;;;;;;5074502;28;20036;-73
2021/12/19 05:49:45;;;;;;;9.27;5.00;;;;;;;;;;5055754;28;20028;-75
2021/12/19 05:52:12;;;;;;;13.15;5.93;;;;;;;;;;5073588;28;20029;-76
2021/12/19 05:54:38;;;;;;;12.90;5.97;;;;;;;;;;5073665;28;20043;-74
2021/12/19 05:57:04;;;;;;;13.35;6.40;;;;;;;;;;5055646;28;20036;-76
2021/12/19 05:59:30;;;;;;;11.80;5.82;;;;;;;;;;5055552;28;20389;-75
2021/12/19 06:01:57;;;;;;;12.73;6.57;;;;;;;;;;5055568;28;20033;-74
2021/12/19 06:04:23;;;;;;;12.60;6.53;;;;;;;;;;5073395;28;20107;-73
2021/12/19 06:06:51;;;;;;;10.73;6.18;;;;;;;;;;5074028;28;20081;-73
2021/12/19 06:09:17;;;;;;;10.98;6.30;;;;;;;;;;5055485;28;20036;-73
2021/12/19 06:11:43;;;;;;;14.90;6.88;;;;;;;;;;5055425;28;20024;-74
2021/12/19 06:14:09;;;;;;;12.52;6.45;;;;;;;;;;5073932;28;20021;-74
2021/12/19 06:16:35;;;;;;;11.77;6.68;;;;;;;;;;5055284;28;20432;-74
2021/12/19 06:19:02;;;;;;;11.23;6.50;;;;;;;;;;5054815;28;20520;-73
2021/12/19 06:21:28;;;;;;;14.85;6.38;;;;;;;;;;5073323;28;20035;-74
2021/12/19 06:23:54;;;;;;;13.57;6.90;;;;;;;;;;5055220;28;20481;-73
2021/12/19 06:26:20;;;;;;;12.32;6.72;;;;;;;;;;5073876;28;20017;-74
2021/12/19 06:28:47;;;;;;;14.13;6.97;;;;;;;;;;5055345;28;20056;-74
2021/12/19 06:31:13;;;;;;;12.45;6.25;;;;;;;;;;5055327;28;20024;-75
2021/12/19 06:33:39;;;;;;;12.95;6.13;;;;;;;;;;5055260;28;20029;-76
2021/12/19 06:36:06;;;;;;;12.48;6.90;;;;;;;;;;5073725;28;20025;-77
2021/12/19 06:38:32;;;;;;;13.13;6.13;;;;;;;;;;5055226;28;20028;-76
2021/12/19 06:40:59;;;;;;;14.15;7.05;;;;;;;;;;5073121;28;20505;-76
2021/12/19 06:43:26;;;;;;;16.58;7.63;;;;;;;;;;5073043;28;20119;-76
2021/12/19 06:45:55;;;;;;;13.00;6.78;;;;;;;;;;5073606;28;20050;-75
2021/12/19 06:48:22;;;;;;;34.53;14.32;;;;;;;;;;5073638;28;20032;-75
2021/12/19 06:50:48;;;;;;;14.23;6.97;;;;;;;;;;5073600;28;20023;-73
2021/12/19 06:53:15;;;;;;;15.98;6.70;;;;;;;;;;5073014;28;20032;-75
2021/12/19 06:55:41;;;;;;;11.88;6.38;;;;;;;;;;5073491;28;20020;-75
2021/12/19 06:58:07;;;;;;;11.25;6.20;;;;;;;;;;5054922;28;20089;-76
2021/12/19 07:00:34;;;;;;;11.57;6.53;;;;;;;;;;5072887;28;20513;-75
2021/12/19 07:03:00;;;;;;;18.25;8.77;;;;;;;;;;5054940;28;20117;-75
2021/12/19 07:05:26;;;;;;;12.82;6.75;;;;;;;;;;5054840;28;20021;-75
2021/12/19 07:07:53;;;;;;;14.32;6.40;;;;;;;;;;5072881;28;20035;-76
2021/12/19 07:10:19;;;;;;;13.20;6.82;;;;;;;;;;5072764;28;20028;-76
2021/12/19 07:12:46;;;;;;;12.73;6.00;;;;;;;;;;5072733;28;20033;-76
2021/12/19 07:15:14;;;;;;;13.73;6.30;;;;;;;;;;5072714;28;20017;-76
2021/12/19 07:17:41;;;;;;;13.27;6.22;;;;;;;;;;5073264;28;20028;-76
2021/12/19 07:20:07;;;;;;;12.57;6.90;;;;;;;;;;5054802;28;20111;-76
2021/12/19 07:22:34;;;;;;;12.15;6.55;;;;;;;;;;5073206;28;20025;-76
2021/12/19 07:25:00;;;;;;;15.80;6.22;;;;;;;;;;5073182;28;20102;-76
2021/12/19 07:27:26;;;;;;;11.55;5.78;;;;;;;;;;5073138;28;20403;-76
2021/12/19 07:29:56;;;;;;;11.70;5.85;;;;;;;;;;5057026;28;20447;-76
2021/12/19 07:32:23;;;;;;;10.45;5.22;;;;;;;;;;5058251;28;20111;-76
2021/12/19 07:34:50;;;;;;;13.23;5.63;;;;;;;;;;5076676;28;20074;-76
2021/12/19 07:37:18;;;;;;;12.55;5.53;;;;;;;;;;5076140;28;20020;-76
2021/12/19 07:40:03;;;;;;;12.90;5.93;;;;;;;;;;5057799;28;20029;-76
2021/12/19 07:42:29;;;;;;;13.13;6.03;;;;;;;;;;5058183;28;20045;-76
2021/12/19 07:44:55;;;;;;;11.48;5.72;;;;;;;;;;5076084;28;20035;-76
2021/12/19 07:47:22;;;;;;;10.80;5.63;;;;;;;;;;5057979;28;20031;-76
2021/12/19 07:49:48;;;;;;;10.88;5.38;;;;;;;;;;5075883;28;20034;-73
2021/12/19 07:52:14;;;;;;;10.02;5.10;;;;;;;;;;5076361;28;20487;-74
2021/12/19 07:54:40;;;;;;;12.48;6.15;;;;;;;;;;5057818;28;20031;-75
2021/12/19 07:57:06;;;;;;;11.98;5.72;;;;;;;;;;5057818;28;20149;-76
2021/12/19 07:59:33;;;;;;;9.65;5.13;;;;;;;;;;5075654;28;20036;-76
2021/12/19 08:02:00;;;;;;;10.82;5.40;;;;;;;;;;5075680;28;20036;-74
2021/12/19 08:04:26;;;;;;;12.35;5.82;;;;;;;;;;5057532;28;20044;-74
2021/12/19 08:06:52;;;;;;;15.00;6.00;;;;;;;;;;5057649;28;20020;-74
2021/12/19 08:09:36;;;;;;;11.50;6.13;;;;;;;;;;5057607;28;20032;-76
2021/12/19 08:12:04;;;;;;;12.18;5.60;;;;;;;;;;5057667;28;20028;-74
2021/12/19 08:14:30;;;;;;;13.70;6.78;;;;;;;;;;5057440;28;20477;-75
2021/12/19 08:16:56;;;;;;;11.90;5.53;;;;;;;;;;5057452;28;20032;-76
2021/12/19 08:19:23;;;;;;;12.05;5.90;;;;;;;;;;5075259;28;20505;-76
2021/12/19 08:21:49;;;;;;;13.10;6.35;;;;;;;;;;5075288;28;20025;-76
2021/12/19 08:24:15;;;;;;;13.00;6.05;;;;;;;;;;5075131;28;20044;-74
2021/12/19 08:26:43;;;;;;;11.43;5.47;;;;;;;;;;5058004;28;20021;-73
2021/12/19 08:29:11;;;;;;;12.38;6.72;;;;;;;;;;5075158;28;20031;-74
2021/12/19 08:31:37;;;;;;;14.35;5.95;;;;;;;;;;5057186;28;20036;-75
2021/12/19 08:34:04;;;;;;;11.55;5.40;;;;;;;;;;5075046;28;20025;-76
2021/12/19 08:36:30;;;;;;;11.70;5.15;;;;;;;;;;5075008;28;20099;-76
2021/12/19 08:38:57;;;;;;;12.18;5.65;;;;;;;;;;5075202;28;20032;-75
2021/12/19 08:41:23;;;;;;;8.50;4.75;;;;;;;;;;5056027;28;20519;-76
2021/12/19 08:49:09;;;;;;;9.77;4.80;;;;;;;;;;5097186;22;20117;-91
2021/12/19 08:51:37;;;;;;;11.52;5.68;;;;;;;;;;5002496;28;20026;-91
2021/12/19 08:54:07;;;;;;;13.23;5.35;;;;;;;;;;5007983;28;20029;-91
2021/12/19 08:56:38;;;;;;;9.82;4.60;;;;;;;;;;4981269;28;20026;-91
2021/12/19 08:59:05;;;;;;;10.38;4.75;;;;;;;;;;4980255;28;20034;-92
2021/12/19 09:01:48;;;;;;;10.10;4.88;;;;;;;;;;4983048;28;20030;-92
2021/12/19 09:04:17;;;;;;;12.50;5.63;;;;;;;;;;4981013;28;20038;-94
2021/12/19 09:07:05;;;;;;;9.70;4.63;;;;;;;;;;4979450;28;20029;-92
2021/12/19 09:09:34;;;;;;;10.52;4.72;;;;;;;;;;4979598;28;20113;-93
2021/12/19 09:12:01;;;;;;;8.30;4.40;;;;;;;;;;4980126;28;20373;-93
2021/12/19 09:14:35;;;;;;;9.75;4.38;;;;;;;;;;4982937;28;20030;-92
2021/12/19 09:17:05;;;;;;;9.93;4.47;;;;;;;;;;4965742;28;20037;-93
2021/12/19 09:19:31;;;;;;;10.23;4.82;;;;;;;;;;4996441;28;20037;-92
2021/12/19 09:21:58;;;;;;;8.70;4.05;;;;;;;;;;4979243;28;20074;-92
2021/12/19 09:24:27;;;;;;;11.30;4.63;;;;;;;;;;4979122;28;20096;-93
2021/12/19 09:26:56;;;;;;;12.18;4.18;;;;;;;;;;4995582;28;20026;-94
2021/12/19 09:29:28;;;;;;;9.15;4.22;;;;;;;;;;4978298;28;20464;-93
2021/12/19 09:32:00;;;;;;;8.38;4.18;;;;;;;;;;4979255;28;20062;-93
2021/12/19 09:34:33;;;;;;;10.40;4.28;;;;;;;;;;4987122;28;20072;-93
2021/12/19 09:37:02;;;;;;;10.57;4.05;;;;;;;;;;4997464;28;20458;-93
2021/12/19 09:39:32;;;;;;;9.00;3.60;;;;;;;;;;4998062;28;20033;-93
2021/12/19 09:44:24;;;;;;;11.68;3.60;;;;;;;;;;5068754;22;20115;-93
